COYOTE (LAKE MENDOCINO) (COY)

Elevation: 720' · RUSSIAN R basin · Operator: US Army Corps of Engineers

Provisional data, subject to change.
Query executed Friday at 5:16:47   clock

Select a sensor type for a plot of data.
Note: Reservoir Flows are daily averages.

Earlier

Date RES ELE    STORAGE    RES CHG    TOC STO    ABV TOC    OUTFLOW    INFLOW    PPT INC    TEMP MN    TEMP MX    EVP PAN   
 FEET   AF   AF   AF   AF   CFS   CFS   INCHES   DEG F   DEG F   INCHES  
04/28/2016 747.84 86091 -35 86370 -279 153 147 0.06 7 23 0.22
04/29/2016 747.79 86004 -87 86370 -366 156 122 0.00 7 21 0.21
04/30/2016 747.76 85952 -52 86370 -418 159 146 0.02 5 26 0.25
05/01/2016 747.71 85864 -88 86370 -506 162 131 0.00 9 29 0.26
05/02/2016 747.68 85812 -52 86370 -558 162 148 0.00 7 26 0.24
05/03/2016 747.64 85742 -70 86370 -628 162 135 0.00 10 25 0.16
05/04/2016 747.61 85690 -52 86370 -680 152 135 0.00 13 25 0.17
05/05/2016 747.63 85725 35 86370 -645 102 122 0.11 11 15 0.06
05/06/2016 747.65 85760 35 86370 -610 102 126 0.00 11 21 0.13
05/07/2016 747.67 85795 35 86370 -575 102 124 0.01 13 18 0.09
05/08/2016 747.69 85829 34 86370 -541 102 125 0.00 12 21 0.12
05/09/2016 747.72 85882 53 86370 -488 102 140 0.06 11 27 0.24
05/10/2016 747.73 85899 17 86370 -471 102 124 0.00 9 30 0.27
05/11/2016 747.73 85899 0 86370 -471 102 115 0.01 9 31 0.27
05/12/2016 747.76 85952 53 86370 -418 106 147 0.00 9 31 0.28
05/13/2016 747.75 85934 -18 86370 -436 110 114 0.00 9 25 0.24
05/14/2016 747.73 85899 -35 86370 -471 110 103 0.00 11 22 0.20
05/15/2016 747.72 85882 -17 86370 -488 110 114 0.00 10 23 0.24
05/16/2016 747.73 85899 17 86370 -471 110 132 0.00 9 27 0.26
05/17/2016 747.75 85934 35 86370 -436 110 143 0.02 10 33 0.29
05/18/2016 747.77 85969 35 86370 -401 111 144 0.00 12 35 0.31
05/19/2016 747.77 85969 0 86370 -401 112 123 0.00 9 20 0.22
05/20/2016 747.77 85969 0 86370 -401 114 124 0.00 8 18 0.21
05/21/2016 747.82 86056 87 86370 -314 114 163 0.22 9 16 0.10
05/22/2016 747.85 86109 53 86370 -261 107 143 0.02 8 19 0.18
05/23/2016 747.89 86178 69 86370 -192 111 155 0.05 9 21 0.17
05/24/2016 747.91 86213 35 86370 -157 113 139 0.03 12 22 0.17
05/25/2016 747.94 86266 53 86370 -104 107 145 0.00 12 24 0.23
05/26/2016 747.98 86336 70 86370 -- 115 164 0.03 9 27 0.27
05/27/2016 -- -- -- -- -- -- -- -- -- -- --

Later | Latest

Warning! This data is preliminary and subject to revision.

Show COY Map | Plot COY Data | 1 Month COY Data | Real-Time COY Data | COY Info